Quincy, IL

9:26 PM CDT on August 31, 2015 (GMT -0500)
Tri-State Storm Chasers - WL#1 | | Change Station
CLOSE
Current Station
Personal Weather Station
Location: Quincy, IL
Elevation: 659 ft
Nearby Weather Stations

Elev 659 ft 39.93 °N, 91.37 °W | Updated 1 minute ago

Clear
Clear
79.9 °F
Feels Like 83 °F
N
1.6
Wind Variable Wind from SE

Today
High -- | Low -- °F
--% Chance of Precip.
Yesterday
High -- | Low -- °F
Precip. -- in
6:32 AM 7:38 PM
Waning Gibbous, 92% visible
Pressure 29.98 in
Visibility 8.0 miles
Clouds Clear
Heat Index 83 °F
Dew Point 71 °F
Humidity 75%
Rainfall 0.00 in
Snow Depth Not available.
UV 0 out of 12
Pollen 10.40 out of 12
Air Quality Not available.
Flu Activity Not available.
METAR KUIN 010154Z AUTO 15005KT 8SM CLR 26/23 A3000 RMK AO2 SLP151 T02560228
Pressure 29.98 in
Visibility 8.0 miles
Clouds Clear
Heat Index 83 °F
Dew Point 71 °F
Humidity 75%
Rainfall 0.00 in
Snow Depth Not available.
UV 0 out of 12
Pollen 10.40 out of 12
Air Quality Not available.
Flu Activity Not available.
METAR KUIN 010154Z AUTO 15005KT 8SM CLR 26/23 A3000 RMK AO2 SLP151 T02560228

10-Day Weather Forecast

×

Almanac

Astronomy

Aug. 31, 2015 Rise Set
Actual Time
Civil Twilight
Nautical Twilight
Astronomical Twilight
Moon
Length of Visible Light
Length of Day
Tomorrow will be .
, % of the Moon is Illuminated

Today's Extremes

State Highs State Lows

Community

WunderPhotos

Upload Photos

1,851,451 photos uploaded!

WunderBlogs® & News

Nearby

Air Quality

  Air Quality AQ Index Pollutant
Not available.

Snow Depth

Station Depth Elevation

Earthquake Activity

City Distance Mag. Time & Date
Minimum magnitude displayed is 2.5.

Coastal Water Temperatures

Place Temperature

Stations

Nearby Weather Stations

Station Location Temp. Windchill Dew Point Humidity Wind Precip. Elev Updated Type